Terminal Aerodrome Forecast
Issued by NWS

Home | Current Version | Previous Version | Text Only | Print | Product List | Glossary On
Versions: 1 2 3 4 5 6 7 8 9 10 11 12
000
FTUS45 KABQ 222300
TAFGUP
TAF
KGUP 222337Z 2300/2324 28010KT P6SM VCSH BKN100
     FM230400 VRB03KT P6SM BKN150
     FM231500 15010KT P6SM SCT100 BKN150
     FM232100 17010KT P6SM VCTS BKN090CB=

USA.gov is the U.S. government's official web portal to all federal, state and local government web resources and services.